메인 페이지
METAR-TAF:

METAR-TAF

공항 :

테나, 에콰도르

위도: 01-03-35S, 경도: 77-35-00W, 고도: 376m

현재 날씨관측

예보는 20 시간 35분 전, 21:00시(UTC)에 발표되었습니다.
3kt
온도 28°C
습도 79%
기압 1010 hPa
시정 10km 이상
고도 2300ft 상공 구름 보통
고도 10000ft 상공 흐림

METAR: SEJD 012100Z 17003KT 9999 SCT023 OVC100 28/24 Q1010 RMK A2985

시각: 12:35 (17:35 UTC)


TAF: 누락

4,000개 이상의 공항 관측 자료 및 예보 (METAR 및 TAF 보고).

지도상에서 검색 가능한 기상관측소가 노란 점과 빨간 점으로 표시되어 있습니다.

기상관측소 명을 보려면 표시 위로 마우스를 이동하세요.

날씨 관측과 예보를 보려면 클릭하세요.

지도 변경 : 확대하려면 엑스 표시가 있는 녹색 버튼, 축소하려면 빼기 표시가 있는 녹색 버튼, 다음 페이지의 지도를 보려면 녹색 화살표를 클릭하세요.


METAR-TAF: